sensor_id;sensor_type;location;lat;lon;timestamp;temperature;humidity
37870;DHT22;62531;53.326;-1.368;2024-02-04T13:23:15;21.50;47.90
37870;DHT22;62531;53.326;-1.368;2024-02-04T13:27:35;21.30;48.60
37870;DHT22;62531;53.326;-1.368;2024-02-04T13:31:55;21.30;48.20
37870;DHT22;62531;53.326;-1.368;2024-02-04T13:39:11;21.30;48.10
37870;DHT22;62531;53.326;-1.368;2024-02-04T13:43:12;21.20;48.00
37870;DHT22;62531;53.326;-1.368;2024-02-04T13:47:13;21.20;48.50
37870;DHT22;62531;53.326;-1.368;2024-02-04T13:51:14;21.20;48.00
37870;DHT22;62531;53.326;-1.368;2024-02-04T13:55:14;21.20;48.10
37870;DHT22;62531;53.326;-1.368;2024-02-04T13:59:15;21.20;48.10
37870;DHT22;62531;53.326;-1.368;2024-02-04T14:03:16;21.20;48.10
37870;DHT22;62531;53.326;-1.368;2024-02-04T14:07:17;21.30;48.10
37870;DHT22;62531;53.326;-1.368;2024-02-04T14:11:17;21.30;48.10
37870;DHT22;62531;53.326;-1.368;2024-02-04T14:15:18;21.40;48.10
37870;DHT22;62531;53.326;-1.368;2024-02-04T14:19:19;21.40;47.90
37870;DHT22;62531;53.326;-1.368;2024-02-04T14:23:20;21.40;47.90
37870;DHT22;62531;53.326;-1.368;2024-02-04T14:27:21;21.40;47.90
37870;DHT22;62531;53.326;-1.368;2024-02-04T14:31:21;21.30;47.50
37870;DHT22;62531;53.326;-1.368;2024-02-04T14:35:30;21.30;47.50
37870;DHT22;62531;53.326;-1.368;2024-02-04T14:39:31;21.20;47.50
37870;DHT22;62531;53.326;-1.368;2024-02-04T14:43:32;21.20;47.50
37870;DHT22;62531;53.326;-1.368;2024-02-04T14:47:32;21.20;47.50
37870;DHT22;62531;53.326;-1.368;2024-02-04T14:51:33;21.20;47.60
37870;DHT22;62531;53.326;-1.368;2024-02-04T14:55:35;21.20;47.70
37870;DHT22;62531;53.326;-1.368;2024-02-04T14:59:36;21.20;47.70
37870;DHT22;62531;53.326;-1.368;2024-02-04T15:03:39;21.20;47.90
37870;DHT22;62531;53.326;-1.368;2024-02-04T15:07:41;21.20;48.00
37870;DHT22;62531;53.326;-1.368;2024-02-04T15:11:43;21.10;48.00
37870;DHT22;62531;53.326;-1.368;2024-02-04T15:15:44;21.10;48.10
37870;DHT22;62531;53.326;-1.368;2024-02-04T15:19:45;21.10;48.20
37870;DHT22;62531;53.326;-1.368;2024-02-04T15:23:45;21.10;48.50
37870;DHT22;62531;53.326;-1.368;2024-02-04T15:27:47;21.10;48.50
37870;DHT22;62531;53.326;-1.368;2024-02-04T15:31:48;21.00;48.60
37870;DHT22;62531;53.326;-1.368;2024-02-04T15:35:52;21.00;48.90
37870;DHT22;62531;53.326;-1.368;2024-02-04T15:39:52;21.00;49.20
37870;DHT22;62531;53.326;-1.368;2024-02-04T15:43:54;21.10;49.30
37870;DHT22;62531;53.326;-1.368;2024-02-04T15:47:55;21.10;49.30
37870;DHT22;62531;53.326;-1.368;2024-02-04T15:51:58;21.20;49.30
37870;DHT22;62531;53.326;-1.368;2024-02-04T15:56:04;21.20;49.30
37870;DHT22;62531;53.326;-1.368;2024-02-04T16:00:07;21.30;49.40
37870;DHT22;62531;53.326;-1.368;2024-02-04T16:04:18;21.40;49.40
37870;DHT22;62531;53.326;-1.368;2024-02-04T16:08:19;21.40;49.40
37870;DHT22;62531;53.326;-1.368;2024-02-04T16:12:20;21.40;49.30
37870;DHT22;62531;53.326;-1.368;2024-02-04T16:16:23;21.40;49.30
37870;DHT22;62531;53.326;-1.368;2024-02-04T16:20:28;21.50;49.30
37870;DHT22;62531;53.326;-1.368;2024-02-04T16:24:29;21.50;48.90
37870;DHT22;62531;53.326;-1.368;2024-02-04T16:28:29;21.50;48.90
37870;DHT22;62531;53.326;-1.368;2024-02-04T16:32:30;21.40;48.80
37870;DHT22;62531;53.326;-1.368;2024-02-04T16:36:31;21.40;49.30
37870;DHT22;62531;53.326;-1.368;2024-02-04T16:40:32;21.30;48.80
37870;DHT22;62531;53.326;-1.368;2024-02-04T16:44:32;21.30;48.90
37870;DHT22;62531;53.326;-1.368;2024-02-04T16:48:33;21.20;49.10
37870;DHT22;62531;53.326;-1.368;2024-02-04T16:52:33;21.30;49.20
37870;DHT22;62531;53.326;-1.368;2024-02-04T16:56:35;21.30;49.30
37870;DHT22;62531;53.326;-1.368;2024-02-04T17:00:36;21.40;49.40
37870;DHT22;62531;53.326;-1.368;2024-02-04T17:04:36;21.40;49.50
37870;DHT22;62531;53.326;-1.368;2024-02-04T17:08:37;21.50;49.50
37870;DHT22;62531;53.326;-1.368;2024-02-04T17:12:39;21.50;49.60
37870;DHT22;62531;53.326;-1.368;2024-02-04T17:20:58;21.60;49.70
37870;DHT22;62531;53.326;-1.368;2024-02-04T17:25:03;21.70;49.70
37870;DHT22;62531;53.326;-1.368;2024-02-04T17:29:05;21.80;49.70
37870;DHT22;62531;53.326;-1.368;2024-02-04T17:33:05;21.80;49.70
37870;DHT22;62531;53.326;-1.368;2024-02-04T17:37:07;21.80;49.60
37870;DHT22;62531;53.326;-1.368;2024-02-04T17:41:08;21.90;49.60
37870;DHT22;62531;53.326;-1.368;2024-02-04T17:45:09;21.90;49.60
37870;DHT22;62531;53.326;-1.368;2024-02-04T17:49:10;21.90;49.50
37870;DHT22;62531;53.326;-1.368;2024-02-04T17:53:11;21.90;49.40
37870;DHT22;62531;53.326;-1.368;2024-02-04T17:57:12;22.00;49.40
37870;DHT22;62531;53.326;-1.368;2024-02-04T18:01:20;22.00;49.40
37870;DHT22;62531;53.326;-1.368;2024-02-04T18:05:20;22.10;49.80
37870;DHT22;62531;53.326;-1.368;2024-02-04T18:09:21;22.10;49.20
37870;DHT22;62531;53.326;-1.368;2024-02-04T18:13:23;22.10;49.00
37870;DHT22;62531;53.326;-1.368;2024-02-04T18:17:23;22.10;48.60
37870;DHT22;62531;53.326;-1.368;2024-02-04T18:21:25;22.10;48.00
37870;DHT22;62531;53.326;-1.368;2024-02-04T18:25:25;22.10;47.80
37870;DHT22;62531;53.326;-1.368;2024-02-04T18:29:26;22.00;47.70
37870;DHT22;62531;53.326;-1.368;2024-02-04T18:33:26;22.00;47.60
37870;DHT22;62531;53.326;-1.368;2024-02-04T18:37:27;22.00;47.50
37870;DHT22;62531;53.326;-1.368;2024-02-04T18:41:27;22.00;47.60
37870;DHT22;62531;53.326;-1.368;2024-02-04T18:45:30;22.00;47.60
37870;DHT22;62531;53.326;-1.368;2024-02-04T18:49:30;21.90;47.60
37870;DHT22;62531;53.326;-1.368;2024-02-04T18:53:34;21.80;47.70
37870;DHT22;62531;53.326;-1.368;2024-02-04T18:57:38;21.80;47.70
37870;DHT22;62531;53.326;-1.368;2024-02-04T19:01:41;21.70;47.80
37870;DHT22;62531;53.326;-1.368;2024-02-04T19:05:43;21.70;47.90
37870;DHT22;62531;53.326;-1.368;2024-02-04T19:09:44;21.60;48.00
37870;DHT22;62531;53.326;-1.368;2024-02-04T19:13:44;21.60;48.00
37870;DHT22;62531;53.326;-1.368;2024-02-04T19:17:45;21.50;48.00
37870;DHT22;62531;53.326;-1.368;2024-02-04T19:21:49;21.50;48.10
37870;DHT22;62531;53.326;-1.368;2024-02-04T19:25:49;21.50;48.20
37870;DHT22;62531;53.326;-1.368;2024-02-04T19:29:50;21.40;48.20
37870;DHT22;62531;53.326;-1.368;2024-02-04T19:33:50;21.40;48.30
37870;DHT22;62531;53.326;-1.368;2024-02-04T19:37:52;21.40;48.50
37870;DHT22;62531;53.326;-1.368;2024-02-04T19:41:53;21.50;48.60
37870;DHT22;62531;53.326;-1.368;2024-02-04T19:45:53;21.50;48.50
37870;DHT22;62531;53.326;-1.368;2024-02-04T19:49:54;21.50;48.40
37870;DHT22;62531;53.326;-1.368;2024-02-04T19:53:55;21.50;48.30
37870;DHT22;62531;53.326;-1.368;2024-02-04T19:57:56;21.50;48.20
37870;DHT22;62531;53.326;-1.368;2024-02-04T20:01:56;21.50;48.10
37870;DHT22;62531;53.326;-1.368;2024-02-04T20:05:58;21.50;48.10
37870;DHT22;62531;53.326;-1.368;2024-02-04T20:09:59;21.50;48.10
37870;DHT22;62531;53.326;-1.368;2024-02-04T20:14:01;21.50;48.00
37870;DHT22;62531;53.326;-1.368;2024-02-04T20:18:04;21.50;48.10
37870;DHT22;62531;53.326;-1.368;2024-02-04T20:22:05;21.50;49.30
37870;DHT22;62531;53.326;-1.368;2024-02-04T20:26:06;21.40;49.80
37870;DHT22;62531;53.326;-1.368;2024-02-04T20:30:07;21.50;50.10
37870;DHT22;62531;53.326;-1.368;2024-02-04T20:34:08;21.40;50.10
37870;DHT22;62531;53.326;-1.368;2024-02-04T20:38:09;21.40;50.40
37870;DHT22;62531;53.326;-1.368;2024-02-04T20:42:10;21.50;50.30
37870;DHT22;62531;53.326;-1.368;2024-02-04T20:46:13;21.50;50.70
37870;DHT22;62531;53.326;-1.368;2024-02-04T20:50:14;21.60;50.00
37870;DHT22;62531;53.326;-1.368;2024-02-04T20:54:15;21.70;49.90
37870;DHT22;62531;53.326;-1.368;2024-02-04T20:58:16;21.70;49.80
37870;DHT22;62531;53.326;-1.368;2024-02-04T21:02:17;21.80;49.80
37870;DHT22;62531;53.326;-1.368;2024-02-04T21:06:18;21.90;49.70
37870;DHT22;62531;53.326;-1.368;2024-02-04T21:10:19;21.90;49.60
37870;DHT22;62531;53.326;-1.368;2024-02-04T21:14:20;22.00;49.50
37870;DHT22;62531;53.326;-1.368;2024-02-04T21:18:20;22.00;49.40
37870;DHT22;62531;53.326;-1.368;2024-02-04T21:22:22;22.00;49.40
37870;DHT22;62531;53.326;-1.368;2024-02-04T21:26:22;22.10;49.30
37870;DHT22;62531;53.326;-1.368;2024-02-04T21:30:23;22.10;49.20
37870;DHT22;62531;53.326;-1.368;2024-02-04T21:34:24;22.00;48.90
37870;DHT22;62531;53.326;-1.368;2024-02-04T21:38:25;22.00;48.80
37870;DHT22;62531;53.326;-1.368;2024-02-04T21:42:25;22.00;48.70
37870;DHT22;62531;53.326;-1.368;2024-02-04T21:46:26;22.00;48.60
37870;DHT22;62531;53.326;-1.368;2024-02-04T21:50:27;22.00;48.60
37870;DHT22;62531;53.326;-1.368;2024-02-04T21:54:27;22.00;48.60
37870;DHT22;62531;53.326;-1.368;2024-02-04T21:58:28;21.90;48.40
37870;DHT22;62531;53.326;-1.368;2024-02-04T22:02:29;21.90;48.40
37870;DHT22;62531;53.326;-1.368;2024-02-04T22:06:29;21.90;48.40
37870;DHT22;62531;53.326;-1.368;2024-02-04T22:10:30;21.90;48.40
37870;DHT22;62531;53.326;-1.368;2024-02-04T22:14:31;21.90;48.30
37870;DHT22;62531;53.326;-1.368;2024-02-04T22:18:31;21.90;48.30
37870;DHT22;62531;53.326;-1.368;2024-02-04T22:22:32;21.90;48.10
37870;DHT22;62531;53.326;-1.368;2024-02-04T22:26:33;21.80;48.00
37870;DHT22;62531;53.326;-1.368;2024-02-04T22:30:33;21.80;47.90
37870;DHT22;62531;53.326;-1.368;2024-02-04T22:34:34;21.80;47.80
37870;DHT22;62531;53.326;-1.368;2024-02-04T22:38:35;21.80;47.70
37870;DHT22;62531;53.326;-1.368;2024-02-04T22:42:39;21.80;47.60
37870;DHT22;62531;53.326;-1.368;2024-02-04T22:46:39;21.80;47.50
37870;DHT22;62531;53.326;-1.368;2024-02-04T22:50:41;21.70;47.30
37870;DHT22;62531;53.326;-1.368;2024-02-04T22:54:41;21.80;47.30
37870;DHT22;62531;53.326;-1.368;2024-02-04T22:58:42;21.70;47.20
37870;DHT22;62531;53.326;-1.368;2024-02-04T23:02:43;21.70;47.10
37870;DHT22;62531;53.326;-1.368;2024-02-04T23:06:43;21.70;47.00
37870;DHT22;62531;53.326;-1.368;2024-02-04T23:10:44;21.70;46.90
37870;DHT22;62531;53.326;-1.368;2024-02-04T23:14:45;21.70;46.80
37870;DHT22;62531;53.326;-1.368;2024-02-04T23:18:46;21.70;46.70
37870;DHT22;62531;53.326;-1.368;2024-02-04T23:22:46;21.70;46.60
37870;DHT22;62531;53.326;-1.368;2024-02-04T23:26:47;21.70;46.60
37870;DHT22;62531;53.326;-1.368;2024-02-04T23:30:49;21.60;46.50
37870;DHT22;62531;53.326;-1.368;2024-02-04T23:34:51;21.60;46.50
37870;DHT22;62531;53.326;-1.368;2024-02-04T23:38:52;21.60;46.50
37870;DHT22;62531;53.326;-1.368;2024-02-04T23:42:52;21.60;46.50
37870;DHT22;62531;53.326;-1.368;2024-02-04T23:46:53;21.60;46.50
37870;DHT22;62531;53.326;-1.368;2024-02-04T23:50:54;21.60;46.50
37870;DHT22;62531;53.326;-1.368;2024-02-04T23:54:55;21.60;46.50
37870;DHT22;62531;53.326;-1.368;2024-02-04T23:58:58;21.60;46.70
